sensor_id;sensor_type;location;lat;lon;timestamp;temperature;humidity
7900;DHT22;3995;50.856;4.404;2023-07-31T00:01:39;22.10;63.80
7900;DHT22;3995;50.856;4.404;2023-07-31T00:04:07;22.10;63.90
7900;DHT22;3995;50.856;4.404;2023-07-31T00:06:35;22.10;63.90
7900;DHT22;3995;50.856;4.404;2023-07-31T00:09:03;22.10;64.10
7900;DHT22;3995;50.856;4.404;2023-07-31T00:11:32;22.10;64.10
7900;DHT22;3995;50.856;4.404;2023-07-31T00:13:59;22.20;64.30
7900;DHT22;3995;50.856;4.404;2023-07-31T00:16:27;22.20;64.40
7900;DHT22;3995;50.856;4.404;2023-07-31T00:18:55;22.20;64.30
7900;DHT22;3995;50.856;4.404;2023-07-31T00:21:22;22.20;64.40
7900;DHT22;3995;50.856;4.404;2023-07-31T00:23:49;22.20;64.40
7900;DHT22;3995;50.856;4.404;2023-07-31T00:26:17;22.20;64.50
7900;DHT22;3995;50.856;4.404;2023-07-31T00:28:46;22.10;64.50
7900;DHT22;3995;50.856;4.404;2023-07-31T00:31:14;22.10;64.60
7900;DHT22;3995;50.856;4.404;2023-07-31T00:33:41;22.10;64.70
7900;DHT22;3995;50.856;4.404;2023-07-31T00:36:09;22.20;64.80
7900;DHT22;3995;50.856;4.404;2023-07-31T00:38:37;22.10;64.80
7900;DHT22;3995;50.856;4.404;2023-07-31T00:41:04;22.10;64.90
7900;DHT22;3995;50.856;4.404;2023-07-31T00:43:32;22.10;65.00
7900;DHT22;3995;50.856;4.404;2023-07-31T00:46:00;22.10;65.00
7900;DHT22;3995;50.856;4.404;2023-07-31T00:48:28;22.10;65.00
7900;DHT22;3995;50.856;4.404;2023-07-31T00:50:56;22.10;65.10
7900;DHT22;3995;50.856;4.404;2023-07-31T00:53:24;22.00;65.00
7900;DHT22;3995;50.856;4.404;2023-07-31T00:55:52;22.10;65.00
7900;DHT22;3995;50.856;4.404;2023-07-31T00:58:20;22.10;65.10
7900;DHT22;3995;50.856;4.404;2023-07-31T01:00:47;22.10;65.10
7900;DHT22;3995;50.856;4.404;2023-07-31T01:03:17;22.10;65.10
7900;DHT22;3995;50.856;4.404;2023-07-31T01:05:49;22.10;65.10
7900;DHT22;3995;50.856;4.404;2023-07-31T01:08:22;22.10;65.10
7900;DHT22;3995;50.856;4.404;2023-07-31T01:10:56;22.10;65.10
7900;DHT22;3995;50.856;4.404;2023-07-31T01:13:26;22.10;65.10
7900;DHT22;3995;50.856;4.404;2023-07-31T01:15:54;22.00;65.00
7900;DHT22;3995;50.856;4.404;2023-07-31T01:18:24;22.00;65.00
7900;DHT22;3995;50.856;4.404;2023-07-31T01:21:03;22.00;64.80
7900;DHT22;3995;50.856;4.404;2023-07-31T01:23:50;22.10;64.70
7900;DHT22;3995;50.856;4.404;2023-07-31T01:26:22;22.10;64.80
7900;DHT22;3995;50.856;4.404;2023-07-31T01:28:55;22.00;64.90
7900;DHT22;3995;50.856;4.404;2023-07-31T01:31:24;22.00;64.90
7900;DHT22;3995;50.856;4.404;2023-07-31T01:33:56;22.00;65.00
7900;DHT22;3995;50.856;4.404;2023-07-31T01:36:25;22.00;64.90
7900;DHT22;3995;50.856;4.404;2023-07-31T01:38:58;22.00;65.00
7900;DHT22;3995;50.856;4.404;2023-07-31T01:41:27;22.00;64.90
7900;DHT22;3995;50.856;4.404;2023-07-31T01:43:55;22.00;65.00
7900;DHT22;3995;50.856;4.404;2023-07-31T01:46:22;22.00;65.10
7900;DHT22;3995;50.856;4.404;2023-07-31T01:48:50;22.00;65.10
7900;DHT22;3995;50.856;4.404;2023-07-31T01:51:18;22.00;65.10
7900;DHT22;3995;50.856;4.404;2023-07-31T01:53:46;22.00;65.20
7900;DHT22;3995;50.856;4.404;2023-07-31T01:56:13;22.00;65.20
7900;DHT22;3995;50.856;4.404;2023-07-31T01:58:42;22.00;65.20
7900;DHT22;3995;50.856;4.404;2023-07-31T02:01:10;22.00;65.10
7900;DHT22;3995;50.856;4.404;2023-07-31T02:03:37;22.00;65.30
7900;DHT22;3995;50.856;4.404;2023-07-31T02:06:04;22.00;65.30
7900;DHT22;3995;50.856;4.404;2023-07-31T02:08:32;22.00;65.40
7900;DHT22;3995;50.856;4.404;2023-07-31T02:10:59;22.00;65.50
7900;DHT22;3995;50.856;4.404;2023-07-31T02:13:27;22.00;65.60
7900;DHT22;3995;50.856;4.404;2023-07-31T02:15:56;22.00;65.60
7900;DHT22;3995;50.856;4.404;2023-07-31T02:18:23;22.00;65.60
7900;DHT22;3995;50.856;4.404;2023-07-31T02:20:51;22.00;65.60
7900;DHT22;3995;50.856;4.404;2023-07-31T02:23:19;22.00;65.70
7900;DHT22;3995;50.856;4.404;2023-07-31T02:25:46;22.00;65.70
7900;DHT22;3995;50.856;4.404;2023-07-31T02:28:14;22.00;65.70
7900;DHT22;3995;50.856;4.404;2023-07-31T02:30:44;22.00;65.80
7900;DHT22;3995;50.856;4.404;2023-07-31T02:33:14;22.00;65.80
7900;DHT22;3995;50.856;4.404;2023-07-31T02:35:42;22.00;65.90
7900;DHT22;3995;50.856;4.404;2023-07-31T02:38:09;22.00;66.10
7900;DHT22;3995;50.856;4.404;2023-07-31T02:40:36;22.00;66.10
7900;DHT22;3995;50.856;4.404;2023-07-31T02:43:03;22.00;66.10
7900;DHT22;3995;50.856;4.404;2023-07-31T02:45:30;22.00;66.10
7900;DHT22;3995;50.856;4.404;2023-07-31T02:47:59;22.00;66.10
7900;DHT22;3995;50.856;4.404;2023-07-31T02:50:28;22.00;66.10
7900;DHT22;3995;50.856;4.404;2023-07-31T02:52:56;22.00;66.50
7900;DHT22;3995;50.856;4.404;2023-07-31T02:55:23;22.00;66.20
7900;DHT22;3995;50.856;4.404;2023-07-31T02:57:50;22.00;66.20
7900;DHT22;3995;50.856;4.404;2023-07-31T03:00:18;22.00;66.30
7900;DHT22;3995;50.856;4.404;2023-07-31T03:02:46;22.00;66.30
7900;DHT22;3995;50.856;4.404;2023-07-31T03:05:13;22.00;66.40
7900;DHT22;3995;50.856;4.404;2023-07-31T03:07:43;22.00;66.40
7900;DHT22;3995;50.856;4.404;2023-07-31T03:10:10;22.00;66.40
7900;DHT22;3995;50.856;4.404;2023-07-31T03:12:38;22.00;66.40
7900;DHT22;3995;50.856;4.404;2023-07-31T03:15:06;22.00;66.40
7900;DHT22;3995;50.856;4.404;2023-07-31T03:17:34;22.00;66.50
7900;DHT22;3995;50.856;4.404;2023-07-31T03:20:02;22.00;66.40
7900;DHT22;3995;50.856;4.404;2023-07-31T03:22:30;22.00;66.50
7900;DHT22;3995;50.856;4.404;2023-07-31T03:24:59;22.00;66.50
7900;DHT22;3995;50.856;4.404;2023-07-31T03:27:26;21.90;66.60
7900;DHT22;3995;50.856;4.404;2023-07-31T03:29:54;21.90;66.70
7900;DHT22;3995;50.856;4.404;2023-07-31T03:32:22;21.90;66.90
7900;DHT22;3995;50.856;4.404;2023-07-31T03:34:49;21.90;66.80
7900;DHT22;3995;50.856;4.404;2023-07-31T03:37:17;21.90;66.90
7900;DHT22;3995;50.856;4.404;2023-07-31T03:39:44;21.90;67.10
7900;DHT22;3995;50.856;4.404;2023-07-31T03:42:13;21.90;67.20
7900;DHT22;3995;50.856;4.404;2023-07-31T03:44:40;21.90;67.30
7900;DHT22;3995;50.856;4.404;2023-07-31T03:47:07;21.90;67.30
7900;DHT22;3995;50.856;4.404;2023-07-31T03:49:34;21.90;67.20
7900;DHT22;3995;50.856;4.404;2023-07-31T03:52:02;21.90;67.30
7900;DHT22;3995;50.856;4.404;2023-07-31T03:54:30;21.90;67.40
7900;DHT22;3995;50.856;4.404;2023-07-31T03:56:57;21.90;67.40
7900;DHT22;3995;50.856;4.404;2023-07-31T03:59:26;21.90;67.40
7900;DHT22;3995;50.856;4.404;2023-07-31T04:01:54;21.90;67.30
7900;DHT22;3995;50.856;4.404;2023-07-31T04:04:21;21.90;67.40
7900;DHT22;3995;50.856;4.404;2023-07-31T04:06:48;21.90;67.40
7900;DHT22;3995;50.856;4.404;2023-07-31T04:09:16;21.90;67.40
7900;DHT22;3995;50.856;4.404;2023-07-31T04:11:43;21.90;67.40
7900;DHT22;3995;50.856;4.404;2023-07-31T04:14:11;21.90;67.40
7900;DHT22;3995;50.856;4.404;2023-07-31T04:16:40;21.90;67.30
7900;DHT22;3995;50.856;4.404;2023-07-31T04:19:07;21.90;67.50
7900;DHT22;3995;50.856;4.404;2023-07-31T04:21:34;21.80;67.30
7900;DHT22;3995;50.856;4.404;2023-07-31T04:24:02;21.80;67.50
7900;DHT22;3995;50.856;4.404;2023-07-31T04:26:29;21.80;67.50
7900;DHT22;3995;50.856;4.404;2023-07-31T04:28:57;21.80;67.40
7900;DHT22;3995;50.856;4.404;2023-07-31T04:31:24;21.80;67.40
7900;DHT22;3995;50.856;4.404;2023-07-31T04:33:53;21.80;67.40
7900;DHT22;3995;50.856;4.404;2023-07-31T04:36:20;21.80;67.30
7900;DHT22;3995;50.856;4.404;2023-07-31T04:38:47;21.80;67.30
7900;DHT22;3995;50.856;4.404;2023-07-31T04:41:15;21.80;67.30
7900;DHT22;3995;50.856;4.404;2023-07-31T04:43:42;21.80;67.30
7900;DHT22;3995;50.856;4.404;2023-07-31T04:46:10;21.80;67.40
7900;DHT22;3995;50.856;4.404;2023-07-31T04:48:37;21.80;67.30
7900;DHT22;3995;50.856;4.404;2023-07-31T04:51:06;21.80;67.30
7900;DHT22;3995;50.856;4.404;2023-07-31T04:53:35;21.80;67.30
7900;DHT22;3995;50.856;4.404;2023-07-31T04:56:03;21.80;67.30
7900;DHT22;3995;50.856;4.404;2023-07-31T04:58:30;21.80;67.30
7900;DHT22;3995;50.856;4.404;2023-07-31T05:00:57;21.80;67.30
7900;DHT22;3995;50.856;4.404;2023-07-31T05:03:25;21.80;67.30
7900;DHT22;3995;50.856;4.404;2023-07-31T05:05:52;21.80;67.20
7900;DHT22;3995;50.856;4.404;2023-07-31T05:08:22;21.80;67.20
7900;DHT22;3995;50.856;4.404;2023-07-31T05:10:49;21.80;67.40
7900;DHT22;3995;50.856;4.404;2023-07-31T05:13:16;21.80;67.40
7900;DHT22;3995;50.856;4.404;2023-07-31T05:15:44;21.80;67.60
7900;DHT22;3995;50.856;4.404;2023-07-31T05:18:12;21.80;67.60
7900;DHT22;3995;50.856;4.404;2023-07-31T05:20:39;21.80;67.70
7900;DHT22;3995;50.856;4.404;2023-07-31T05:23:07;21.80;67.80
7900;DHT22;3995;50.856;4.404;2023-07-31T05:25:36;21.70;67.80
7900;DHT22;3995;50.856;4.404;2023-07-31T05:28:03;21.70;67.80
7900;DHT22;3995;50.856;4.404;2023-07-31T05:30:30;21.70;67.90
7900;DHT22;3995;50.856;4.404;2023-07-31T05:32:58;21.70;67.90
7900;DHT22;3995;50.856;4.404;2023-07-31T05:35:26;21.70;67.80
7900;DHT22;3995;50.856;4.404;2023-07-31T05:37:53;21.70;67.80
7900;DHT22;3995;50.856;4.404;2023-07-31T05:40:21;21.70;67.90
7900;DHT22;3995;50.856;4.404;2023-07-31T05:42:50;21.70;67.80
7900;DHT22;3995;50.856;4.404;2023-07-31T05:45:18;21.70;67.80
7900;DHT22;3995;50.856;4.404;2023-07-31T05:47:45;21.70;67.80
7900;DHT22;3995;50.856;4.404;2023-07-31T05:50:13;21.70;67.80
7900;DHT22;3995;50.856;4.404;2023-07-31T05:52:40;21.70;67.80
7900;DHT22;3995;50.856;4.404;2023-07-31T05:55:08;21.70;67.70
7900;DHT22;3995;50.856;4.404;2023-07-31T05:57:36;21.70;67.60
7900;DHT22;3995;50.856;4.404;2023-07-31T06:00:06;21.70;67.70
7900;DHT22;3995;50.856;4.404;2023-07-31T06:02:34;21.70;67.50
7900;DHT22;3995;50.856;4.404;2023-07-31T06:05:03;21.60;67.50
7900;DHT22;3995;50.856;4.404;2023-07-31T06:07:31;21.60;67.60
7900;DHT22;3995;50.856;4.404;2023-07-31T06:09:58;21.60;67.80
7900;DHT22;3995;50.856;4.404;2023-07-31T06:12:30;21.60;67.60
7900;DHT22;3995;50.856;4.404;2023-07-31T06:14:58;21.60;67.70
7900;DHT22;3995;50.856;4.404;2023-07-31T06:17:26;21.70;67.60
7900;DHT22;3995;50.856;4.404;2023-07-31T06:19:55;21.70;67.50
7900;DHT22;3995;50.856;4.404;2023-07-31T06:22:22;21.60;67.50
7900;DHT22;3995;50.856;4.404;2023-07-31T06:24:50;21.60;67.50
7900;DHT22;3995;50.856;4.404;2023-07-31T06:27:17;21.60;67.30
7900;DHT22;3995;50.856;4.404;2023-07-31T06:29:44;21.60;67.90
7900;DHT22;3995;50.856;4.404;2023-07-31T06:32:11;21.60;67.20
7900;DHT22;3995;50.856;4.404;2023-07-31T06:34:40;21.60;67.10
7900;DHT22;3995;50.856;4.404;2023-07-31T06:37:08;21.60;67.00
7900;DHT22;3995;50.856;4.404;2023-07-31T06:39:35;21.60;67.10
7900;DHT22;3995;50.856;4.404;2023-07-31T06:42:03;21.60;67.20
7900;DHT22;3995;50.856;4.404;2023-07-31T06:44:30;21.60;67.00
7900;DHT22;3995;50.856;4.404;2023-07-31T06:46:57;21.60;67.00
7900;DHT22;3995;50.856;4.404;2023-07-31T06:49:24;21.70;67.10
7900;DHT22;3995;50.856;4.404;2023-07-31T06:51:53;21.70;66.80
7900;DHT22;3995;50.856;4.404;2023-07-31T06:54:21;21.70;66.80
7900;DHT22;3995;50.856;4.404;2023-07-31T06:56:48;21.60;66.80
7900;DHT22;3995;50.856;4.404;2023-07-31T06:59:15;21.70;66.70
7900;DHT22;3995;50.856;4.404;2023-07-31T07:01:42;21.70;66.60
7900;DHT22;3995;50.856;4.404;2023-07-31T07:04:10;21.70;66.60
7900;DHT22;3995;50.856;4.404;2023-07-31T07:06:37;21.70;66.60
7900;DHT22;3995;50.856;4.404;2023-07-31T07:09:06;21.70;66.40
7900;DHT22;3995;50.856;4.404;2023-07-31T07:11:34;21.70;66.30
7900;DHT22;3995;50.856;4.404;2023-07-31T07:14:03;21.70;66.50
7900;DHT22;3995;50.856;4.404;2023-07-31T07:16:30;21.70;66.50
7900;DHT22;3995;50.856;4.404;2023-07-31T07:18:58;21.70;66.30
7900;DHT22;3995;50.856;4.404;2023-07-31T07:21:25;21.70;66.20
7900;DHT22;3995;50.856;4.404;2023-07-31T07:23:52;21.70;66.10
7900;DHT22;3995;50.856;4.404;2023-07-31T07:26:22;21.70;66.10
7900;DHT22;3995;50.856;4.404;2023-07-31T07:28:49;21.70;66.10
7900;DHT22;3995;50.856;4.404;2023-07-31T07:31:16;21.70;66.00
7900;DHT22;3995;50.856;4.404;2023-07-31T07:33:44;21.70;66.00
7900;DHT22;3995;50.856;4.404;2023-07-31T07:36:11;21.70;65.90
7900;DHT22;3995;50.856;4.404;2023-07-31T07:38:39;21.70;65.70
7900;DHT22;3995;50.856;4.404;2023-07-31T07:41:07;21.70;65.60
7900;DHT22;3995;50.856;4.404;2023-07-31T07:43:36;21.70;65.60
7900;DHT22;3995;50.856;4.404;2023-07-31T07:46:04;21.70;65.50
7900;DHT22;3995;50.856;4.404;2023-07-31T07:48:31;21.70;65.50
7900;DHT22;3995;50.856;4.404;2023-07-31T07:50:59;21.70;65.50
7900;DHT22;3995;50.856;4.404;2023-07-31T07:53:26;21.70;65.50
7900;DHT22;3995;50.856;4.404;2023-07-31T07:55:54;21.70;65.60
7900;DHT22;3995;50.856;4.404;2023-07-31T07:58:21;21.70;65.50
7900;DHT22;3995;50.856;4.404;2023-07-31T08:00:50;21.70;65.50
7900;DHT22;3995;50.856;4.404;2023-07-31T08:03:17;21.70;65.30
7900;DHT22;3995;50.856;4.404;2023-07-31T08:05:45;21.70;65.30
7900;DHT22;3995;50.856;4.404;2023-07-31T08:08:15;21.80;64.90
7900;DHT22;3995;50.856;4.404;2023-07-31T08:10:47;21.80;65.60
7900;DHT22;3995;50.856;4.404;2023-07-31T08:13:14;21.80;64.90
7900;DHT22;3995;50.856;4.404;2023-07-31T08:15:43;21.80;65.00
7900;DHT22;3995;50.856;4.404;2023-07-31T08:18:12;21.70;64.80
7900;DHT22;3995;50.856;4.404;2023-07-31T08:20:45;21.70;64.80
7900;DHT22;3995;50.856;4.404;2023-07-31T08:23:15;21.70;65.00
7900;DHT22;3995;50.856;4.404;2023-07-31T08:25:44;21.70;65.10
7900;DHT22;3995;50.856;4.404;2023-07-31T08:28:12;21.70;65.10
7900;DHT22;3995;50.856;4.404;2023-07-31T08:30:39;21.70;65.30
7900;DHT22;3995;50.856;4.404;2023-07-31T08:33:07;21.70;65.40
7900;DHT22;3995;50.856;4.404;2023-07-31T08:35:36;21.70;65.50
7900;DHT22;3995;50.856;4.404;2023-07-31T08:38:04;21.80;65.60
7900;DHT22;3995;50.856;4.404;2023-07-31T08:40:31;21.80;65.50
7900;DHT22;3995;50.856;4.404;2023-07-31T08:42:59;21.70;65.40
7900;DHT22;3995;50.856;4.404;2023-07-31T08:45:28;21.70;65.40
7900;DHT22;3995;50.856;4.404;2023-07-31T08:47:56;21.70;65.50
7900;DHT22;3995;50.856;4.404;2023-07-31T08:50:24;21.70;65.50
7900;DHT22;3995;50.856;4.404;2023-07-31T08:52:53;21.70;65.50
7900;DHT22;3995;50.856;4.404;2023-07-31T08:55:20;21.70;65.60
7900;DHT22;3995;50.856;4.404;2023-07-31T08:57:51;21.70;65.70
7900;DHT22;3995;50.856;4.404;2023-07-31T09:00:19;21.70;65.70
7900;DHT22;3995;50.856;4.404;2023-07-31T09:02:54;21.70;65.80
7900;DHT22;3995;50.856;4.404;2023-07-31T09:05:23;21.70;65.80
7900;DHT22;3995;50.856;4.404;2023-07-31T09:07:55;21.70;65.90
7900;DHT22;3995;50.856;4.404;2023-07-31T09:10:23;21.70;65.90
7900;DHT22;3995;50.856;4.404;2023-07-31T09:12:51;21.70;65.90
7900;DHT22;3995;50.856;4.404;2023-07-31T09:15:19;21.70;65.80
7900;DHT22;3995;50.856;4.404;2023-07-31T09:17:46;21.70;65.90
7900;DHT22;3995;50.856;4.404;2023-07-31T09:20:15;21.70;65.80
7900;DHT22;3995;50.856;4.404;2023-07-31T09:22:44;21.70;65.70
7900;DHT22;3995;50.856;4.404;2023-07-31T09:25:16;21.70;65.90
7900;DHT22;3995;50.856;4.404;2023-07-31T09:27:46;21.80;65.80
7900;DHT22;3995;50.856;4.404;2023-07-31T09:30:14;21.80;65.90
7900;DHT22;3995;50.856;4.404;2023-07-31T09:32:42;21.70;66.00
7900;DHT22;3995;50.856;4.404;2023-07-31T09:35:28;21.80;66.50
7900;DHT22;3995;50.856;4.404;2023-07-31T09:37:57;21.80;66.60
7900;DHT22;3995;50.856;4.404;2023-07-31T09:40:28;21.80;66.90
7900;DHT22;3995;50.856;4.404;2023-07-31T09:42:59;21.80;66.90
7900;DHT22;3995;50.856;4.404;2023-07-31T09:45:27;21.80;67.10
7900;DHT22;3995;50.856;4.404;2023-07-31T09:47:55;21.80;67.40
7900;DHT22;3995;50.856;4.404;2023-07-31T09:50:24;21.80;67.60
7900;DHT22;3995;50.856;4.404;2023-07-31T09:52:52;21.80;67.80
7900;DHT22;3995;50.856;4.404;2023-07-31T09:55:20;21.80;68.00
7900;DHT22;3995;50.856;4.404;2023-07-31T09:57:49;21.90;68.10
7900;DHT22;3995;50.856;4.404;2023-07-31T10:00:18;21.90;68.20
7900;DHT22;3995;50.856;4.404;2023-07-31T10:02:48;21.90;68.40
7900;DHT22;3995;50.856;4.404;2023-07-31T10:05:17;21.90;68.50
7900;DHT22;3995;50.856;4.404;2023-07-31T10:07:51;21.90;68.70
7900;DHT22;3995;50.856;4.404;2023-07-31T10:10:20;21.90;68.70
7900;DHT22;3995;50.856;4.404;2023-07-31T10:12:50;21.90;68.90
7900;DHT22;3995;50.856;4.404;2023-07-31T10:15:20;21.90;69.00
7900;DHT22;3995;50.856;4.404;2023-07-31T10:17:48;21.90;69.10
7900;DHT22;3995;50.856;4.404;2023-07-31T10:20:17;21.90;69.10
7900;DHT22;3995;50.856;4.404;2023-07-31T10:22:45;21.90;69.30
7900;DHT22;3995;50.856;4.404;2023-07-31T10:25:14;21.90;69.40
7900;DHT22;3995;50.856;4.404;2023-07-31T10:27:42;22.00;69.60
7900;DHT22;3995;50.856;4.404;2023-07-31T10:30:14;22.00;69.50
7900;DHT22;3995;50.856;4.404;2023-07-31T10:32:43;22.00;69.50
7900;DHT22;3995;50.856;4.404;2023-07-31T10:35:12;22.00;69.40
7900;DHT22;3995;50.856;4.404;2023-07-31T10:37:41;22.00;69.50
7900;DHT22;3995;50.856;4.404;2023-07-31T10:40:11;22.00;69.30
7900;DHT22;3995;50.856;4.404;2023-07-31T10:42:46;22.00;69.20
7900;DHT22;3995;50.856;4.404;2023-07-31T10:45:25;22.00;69.10
7900;DHT22;3995;50.856;4.404;2023-07-31T10:47:58;22.00;69.00
7900;DHT22;3995;50.856;4.404;2023-07-31T10:50:27;22.00;69.00
7900;DHT22;3995;50.856;4.404;2023-07-31T10:52:56;22.00;69.10
7900;DHT22;3995;50.856;4.404;2023-07-31T10:55:28;22.00;69.10
7900;DHT22;3995;50.856;4.404;2023-07-31T10:57:56;22.00;68.90
7900;DHT22;3995;50.856;4.404;2023-07-31T11:00:28;22.00;68.90
7900;DHT22;3995;50.856;4.404;2023-07-31T11:03:05;22.00;68.80
7900;DHT22;3995;50.856;4.404;2023-07-31T11:05:49;22.00;68.50
7900;DHT22;3995;50.856;4.404;2023-07-31T11:08:21;22.00;68.40
7900;DHT22;3995;50.856;4.404;2023-07-31T11:10:50;22.00;68.50
7900;DHT22;3995;50.856;4.404;2023-07-31T11:13:18;22.00;68.30
7900;DHT22;3995;50.856;4.404;2023-07-31T11:15:47;22.00;68.10
7900;DHT22;3995;50.856;4.404;2023-07-31T11:18:15;22.10;68.20
7900;DHT22;3995;50.856;4.404;2023-07-31T11:20:42;22.10;68.00
7900;DHT22;3995;50.856;4.404;2023-07-31T11:23:11;22.10;67.90
7900;DHT22;3995;50.856;4.404;2023-07-31T11:25:40;22.10;67.90
7900;DHT22;3995;50.856;4.404;2023-07-31T11:28:09;22.10;67.90
7900;DHT22;3995;50.856;4.404;2023-07-31T11:30:38;22.20;67.90
7900;DHT22;3995;50.856;4.404;2023-07-31T11:33:09;22.20;67.90
7900;DHT22;3995;50.856;4.404;2023-07-31T11:35:42;22.20;67.90
7900;DHT22;3995;50.856;4.404;2023-07-31T11:38:12;22.20;67.90
7900;DHT22;3995;50.856;4.404;2023-07-31T11:40:43;22.20;67.90
7900;DHT22;3995;50.856;4.404;2023-07-31T11:43:11;22.20;67.80
7900;DHT22;3995;50.856;4.404;2023-07-31T11:45:45;22.20;67.80
7900;DHT22;3995;50.856;4.404;2023-07-31T11:48:21;22.20;67.70
7900;DHT22;3995;50.856;4.404;2023-07-31T11:50:50;22.20;67.60
7900;DHT22;3995;50.856;4.404;2023-07-31T11:53:22;22.20;67.50
7900;DHT22;3995;50.856;4.404;2023-07-31T11:55:52;22.20;67.60
7900;DHT22;3995;50.856;4.404;2023-07-31T11:58:21;22.30;67.80
7900;DHT22;3995;50.856;4.404;2023-07-31T12:00:48;22.30;67.70
7900;DHT22;3995;50.856;4.404;2023-07-31T12:03:16;22.30;67.70
7900;DHT22;3995;50.856;4.404;2023-07-31T12:05:47;22.30;67.70
7900;DHT22;3995;50.856;4.404;2023-07-31T12:08:14;22.30;67.50
7900;DHT22;3995;50.856;4.404;2023-07-31T12:10:42;22.30;67.50
7900;DHT22;3995;50.856;4.404;2023-07-31T12:13:20;22.30;67.60
7900;DHT22;3995;50.856;4.404;2023-07-31T12:15:48;22.30;67.40
7900;DHT22;3995;50.856;4.404;2023-07-31T12:18:19;22.30;67.40
7900;DHT22;3995;50.856;4.404;2023-07-31T12:20:53;22.30;67.20
7900;DHT22;3995;50.856;4.404;2023-07-31T12:23:22;22.40;67.30
7900;DHT22;3995;50.856;4.404;2023-07-31T12:26:00;22.30;67.20
7900;DHT22;3995;50.856;4.404;2023-07-31T12:28:28;22.40;67.30
7900;DHT22;3995;50.856;4.404;2023-07-31T12:30:57;22.40;67.40
7900;DHT22;3995;50.856;4.404;2023-07-31T12:33:31;22.40;67.30
7900;DHT22;3995;50.856;4.404;2023-07-31T12:36:01;22.40;67.20
7900;DHT22;3995;50.856;4.404;2023-07-31T12:38:29;22.40;67.20
7900;DHT22;3995;50.856;4.404;2023-07-31T12:40:57;22.40;67.20
7900;DHT22;3995;50.856;4.404;2023-07-31T12:43:25;22.40;67.20
7900;DHT22;3995;50.856;4.404;2023-07-31T12:45:53;22.40;67.30
7900;DHT22;3995;50.856;4.404;2023-07-31T12:48:21;22.40;67.30
7900;DHT22;3995;50.856;4.404;2023-07-31T12:50:48;22.40;67.30
7900;DHT22;3995;50.856;4.404;2023-07-31T12:53:17;22.40;67.30
7900;DHT22;3995;50.856;4.404;2023-07-31T12:55:45;22.50;67.40
7900;DHT22;3995;50.856;4.404;2023-07-31T12:58:12;22.40;67.30
7900;DHT22;3995;50.856;4.404;2023-07-31T13:00:39;22.50;67.40
7900;DHT22;3995;50.856;4.404;2023-07-31T13:03:07;22.50;67.50
7900;DHT22;3995;50.856;4.404;2023-07-31T13:05:35;22.50;67.60
7900;DHT22;3995;50.856;4.404;2023-07-31T13:08:03;22.50;67.60
7900;DHT22;3995;50.856;4.404;2023-07-31T13:10:32;22.50;67.50
7900;DHT22;3995;50.856;4.404;2023-07-31T13:12:59;22.50;67.50
7900;DHT22;3995;50.856;4.404;2023-07-31T13:15:27;22.50;67.70
7900;DHT22;3995;50.856;4.404;2023-07-31T13:17:55;22.40;67.80
7900;DHT22;3995;50.856;4.404;2023-07-31T13:20:22;22.40;68.00
7900;DHT22;3995;50.856;4.404;2023-07-31T13:22:50;22.40;68.10
7900;DHT22;3995;50.856;4.404;2023-07-31T13:25:17;22.40;68.10
7900;DHT22;3995;50.856;4.404;2023-07-31T13:27:46;22.40;68.30
7900;DHT22;3995;50.856;4.404;2023-07-31T13:30:13;22.40;68.70
7900;DHT22;3995;50.856;4.404;2023-07-31T13:32:41;22.40;69.00
7900;DHT22;3995;50.856;4.404;2023-07-31T13:35:09;22.40;69.30
7900;DHT22;3995;50.856;4.404;2023-07-31T13:37:37;22.40;69.70
7900;DHT22;3995;50.856;4.404;2023-07-31T13:40:06;22.30;69.80
7900;DHT22;3995;50.856;4.404;2023-07-31T13:42:34;22.30;70.20
7900;DHT22;3995;50.856;4.404;2023-07-31T13:45:03;22.30;70.50
7900;DHT22;3995;50.856;4.404;2023-07-31T13:47:31;22.30;70.80
7900;DHT22;3995;50.856;4.404;2023-07-31T13:50:00;22.30;70.90
7900;DHT22;3995;50.856;4.404;2023-07-31T13:52:28;22.30;71.10
7900;DHT22;3995;50.856;4.404;2023-07-31T13:54:55;22.20;71.10
7900;DHT22;3995;50.856;4.404;2023-07-31T13:57:23;22.20;71.30
7900;DHT22;3995;50.856;4.404;2023-07-31T13:59:50;22.20;71.50
7900;DHT22;3995;50.856;4.404;2023-07-31T14:02:19;22.20;71.60
7900;DHT22;3995;50.856;4.404;2023-07-31T14:04:47;22.20;71.60
7900;DHT22;3995;50.856;4.404;2023-07-31T14:07:15;22.20;71.80
7900;DHT22;3995;50.856;4.404;2023-07-31T14:09:43;22.20;71.90
7900;DHT22;3995;50.856;4.404;2023-07-31T14:12:11;22.20;72.10
7900;DHT22;3995;50.856;4.404;2023-07-31T14:14:38;22.20;72.20
7900;DHT22;3995;50.856;4.404;2023-07-31T14:17:06;22.20;72.20
7900;DHT22;3995;50.856;4.404;2023-07-31T14:19:36;22.20;72.20
7900;DHT22;3995;50.856;4.404;2023-07-31T14:22:04;22.10;72.00
7900;DHT22;3995;50.856;4.404;2023-07-31T14:24:32;22.20;72.20
7900;DHT22;3995;50.856;4.404;2023-07-31T14:27:00;22.20;72.20
7900;DHT22;3995;50.856;4.404;2023-07-31T14:29:27;22.10;72.10
7900;DHT22;3995;50.856;4.404;2023-07-31T14:31:54;22.20;72.30
7900;DHT22;3995;50.856;4.404;2023-07-31T14:34:22;22.10;72.40
7900;DHT22;3995;50.856;4.404;2023-07-31T14:36:51;22.10;72.40
7900;DHT22;3995;50.856;4.404;2023-07-31T14:39:18;22.10;72.50
7900;DHT22;3995;50.856;4.404;2023-07-31T14:41:46;22.20;72.50
7900;DHT22;3995;50.856;4.404;2023-07-31T14:44:13;22.20;72.60
7900;DHT22;3995;50.856;4.404;2023-07-31T14:46:40;22.20;72.60
7900;DHT22;3995;50.856;4.404;2023-07-31T14:49:08;22.20;72.60
7900;DHT22;3995;50.856;4.404;2023-07-31T14:51:35;22.20;72.70
7900;DHT22;3995;50.856;4.404;2023-07-31T14:54:04;22.20;72.60
7900;DHT22;3995;50.856;4.404;2023-07-31T14:56:32;22.20;72.60
7900;DHT22;3995;50.856;4.404;2023-07-31T14:58:59;22.20;72.60
7900;DHT22;3995;50.856;4.404;2023-07-31T15:01:27;22.20;72.60
7900;DHT22;3995;50.856;4.404;2023-07-31T15:03:55;22.20;72.60
7900;DHT22;3995;50.856;4.404;2023-07-31T15:06:22;22.20;72.60
7900;DHT22;3995;50.856;4.404;2023-07-31T15:08:49;22.20;72.60
7900;DHT22;3995;50.856;4.404;2023-07-31T15:11:18;22.20;72.60
7900;DHT22;3995;50.856;4.404;2023-07-31T15:13:46;22.20;72.50
7900;DHT22;3995;50.856;4.404;2023-07-31T15:16:13;22.20;72.70
7900;DHT22;3995;50.856;4.404;2023-07-31T15:18:40;22.20;72.80
7900;DHT22;3995;50.856;4.404;2023-07-31T15:21:08;22.20;72.80
7900;DHT22;3995;50.856;4.404;2023-07-31T15:23:36;22.20;72.70
7900;DHT22;3995;50.856;4.404;2023-07-31T15:26:04;22.20;72.70
7900;DHT22;3995;50.856;4.404;2023-07-31T15:28:34;22.20;72.60
7900;DHT22;3995;50.856;4.404;2023-07-31T15:31:03;22.20;72.60
7900;DHT22;3995;50.856;4.404;2023-07-31T15:33:30;22.20;72.70
7900;DHT22;3995;50.856;4.404;2023-07-31T15:35:57;22.20;72.60
7900;DHT22;3995;50.856;4.404;2023-07-31T15:38:25;22.20;72.60
7900;DHT22;3995;50.856;4.404;2023-07-31T15:40:52;22.20;72.60
7900;DHT22;3995;50.856;4.404;2023-07-31T15:43:21;22.20;72.60
7900;DHT22;3995;50.856;4.404;2023-07-31T15:45:50;22.20;72.60
7900;DHT22;3995;50.856;4.404;2023-07-31T15:48:17;22.20;72.60
7900;DHT22;3995;50.856;4.404;2023-07-31T15:50:44;22.20;72.50
7900;DHT22;3995;50.856;4.404;2023-07-31T15:53:12;22.20;72.50
7900;DHT22;3995;50.856;4.404;2023-07-31T15:55:39;22.20;72.60
7900;DHT22;3995;50.856;4.404;2023-07-31T15:58:07;22.20;72.50
7900;DHT22;3995;50.856;4.404;2023-07-31T16:00:34;22.10;72.40
7900;DHT22;3995;50.856;4.404;2023-07-31T16:03:04;22.10;72.40
7900;DHT22;3995;50.856;4.404;2023-07-31T16:05:31;22.10;72.50
7900;DHT22;3995;50.856;4.404;2023-07-31T16:07:58;22.10;72.60
7900;DHT22;3995;50.856;4.404;2023-07-31T16:10:26;22.20;72.70